Time;durP1;ratioP1;P1;durP2;ratioP2;P2;SDS_P1;SDS_P2;PMS_P1;PMS_P2;Temp;Humidity;BMP_temperature;BMP_pressure;BME280_temperature;BME280_humidity;BME280_pressure;Samples;Min_cycle;Max_cycle;Signal;HPM_P1;HPM_P2
2021/09/08 00:01:23;;;;;;;32.90;14.47;;;20.00;99.90;;;;;;5092070;28;21053;-82
2021/09/08 00:03:49;;;;;;;22.57;11.10;;;20.00;99.90;;;;;;5092966;28;21062;-83
2021/09/08 00:06:17;;;;;;;20.77;12.30;;;20.00;99.90;;;;;;5095156;28;20585;-84
2021/09/08 00:08:43;;;;;;;30.23;12.10;;;20.00;99.90;;;;;;5093213;28;20770;-81
2021/09/08 00:11:12;;;;;;;22.77;10.90;;;19.90;99.90;;;;;;5089690;28;20450;-81
2021/09/08 00:13:39;;;;;;;19.80;10.87;;;19.90;99.90;;;;;;5099438;28;20552;-83
2021/09/08 00:16:06;;;;;;;22.90;10.90;;;19.90;99.90;;;;;;5102163;28;20545;-82
2021/09/08 00:18:33;;;;;;;16.00;10.90;;;19.90;99.90;;;;;;5093457;28;20462;-82
2021/09/08 00:21:00;;;;;;;18.73;10.60;;;19.90;99.90;;;;;;5096118;28;20485;-81
2021/09/08 00:23:26;;;;;;;19.50;10.73;;;19.90;99.90;;;;;;5094982;28;20534;-83
2021/09/08 00:25:53;;;;;;;17.03;10.47;;;19.90;99.90;;;;;;5092776;28;20493;-84
2021/09/08 00:28:22;;;;;;;24.40;10.10;;;19.90;99.90;;;;;;5091671;28;20849;-83
2021/09/08 00:30:49;;;;;;;18.63;11.37;;;19.90;99.90;;;;;;5094952;28;20472;-85
2021/09/08 00:33:16;;;;;;;21.00;10.47;;;19.90;99.90;;;;;;5092933;28;20461;-83
2021/09/08 00:35:43;;;;;;;23.10;11.00;;;19.90;99.90;;;;;;5094729;28;20483;-82
2021/09/08 00:38:10;;;;;;;14.97;9.63;;;19.90;99.90;;;;;;5096777;28;20468;-84
2021/09/08 00:40:37;;;;;;;15.13;10.30;;;19.90;99.90;;;;;;5094410;28;20469;-82
2021/09/08 00:43:04;;;;;;;21.00;9.77;;;19.80;99.90;;;;;;5093654;28;20476;-82
2021/09/08 00:45:33;;;;;;;21.40;11.40;;;19.90;99.90;;;;;;5093638;28;20461;-82
2021/09/08 00:48:00;;;;;;;14.77;9.73;;;19.80;99.90;;;;;;5085808;28;21053;-85
2021/09/08 00:50:27;;;;;;;13.07;9.77;;;19.80;99.90;;;;;;5090689;28;20557;-82
2021/09/08 00:52:55;;;;;;;18.93;9.63;;;19.80;99.90;;;;;;5091441;28;20537;-82
2021/09/08 00:55:22;;;;;;;14.53;9.23;;;19.80;99.90;;;;;;5092477;28;20457;-81
2021/09/08 00:57:50;;;;;;;18.00;10.87;;;19.80;99.90;;;;;;5089016;28;20830;-81
2021/09/08 01:00:17;;;;;;;15.57;9.30;;;19.80;99.90;;;;;;5093305;28;20684;-83
2021/09/08 01:02:46;;;;;;;14.23;10.50;;;19.80;99.90;;;;;;5089930;28;20888;-83
2021/09/08 01:05:13;;;;;;;14.30;10.00;;;19.80;99.90;;;;;;5090601;28;20482;-84
2021/09/08 01:07:40;;;;;;;12.77;10.40;;;19.80;99.90;;;;;;5094102;28;20472;-82
2021/09/08 01:10:08;;;;;;;19.43;10.90;;;19.70;99.90;;;;;;5096468;28;20460;-83
2021/09/08 01:12:35;;;;;;;14.07;10.33;;;19.70;99.90;;;;;;5097901;28;20517;-82
2021/09/08 01:15:02;;;;;;;14.20;10.80;;;19.70;99.90;;;;;;5094588;27;21121;-84
2021/09/08 01:17:29;;;;;;;16.90;10.70;;;19.70;99.90;;;;;;5091614;28;20555;-83
2021/09/08 01:19:57;;;;;;;17.43;11.47;;;19.60;99.90;;;;;;5092756;28;20476;-83
2021/09/08 01:22:26;;;;;;;17.93;11.27;;;;;;;;;;5094055;28;20466;-81
2021/09/08 01:24:55;;;;;;;19.30;10.77;;;19.60;99.90;;;;;;5095237;28;21050;-82
2021/09/08 01:27:21;;;;;;;14.37;10.00;;;19.60;99.90;;;;;;5092452;28;21078;-83
2021/09/08 01:29:48;;;;;;;13.93;10.60;;;19.50;99.90;;;;;;5094000;28;21139;-83
2021/09/08 01:32:15;;;;;;;16.07;10.10;;;19.50;99.90;;;;;;5092294;28;20953;-84
2021/09/08 01:34:42;;;;;;;19.13;11.73;;;19.50;99.90;;;;;;5088614;28;20467;-83
2021/09/08 01:37:11;;;;;;;17.73;10.00;;;19.50;99.90;;;;;;5090912;28;20468;-81
2021/09/08 01:39:38;;;;;;;14.70;10.20;;;19.50;99.90;;;;;;5093871;28;20513;-82
2021/09/08 01:42:07;;;;;;;13.33;10.97;;;19.40;99.90;;;;;;5094254;28;20551;-82
2021/09/08 01:44:34;;;;;;;13.93;10.47;;;19.40;99.90;;;;;;5090775;28;21092;-81
2021/09/08 01:47:01;;;;;;;16.00;10.20;;;19.40;99.90;;;;;;5091372;28;20555;-84
2021/09/08 01:49:28;;;;;;;14.57;10.50;;;19.40;99.90;;;;;;5094575;28;20466;-82
2021/09/08 01:51:55;;;;;;;17.97;11.00;;;19.40;99.90;;;;;;5092861;28;20458;-82
2021/09/08 01:54:22;;;;;;;13.03;10.00;;;19.40;99.90;;;;;;5093569;28;20453;-83
2021/09/08 01:56:49;;;;;;;11.77;9.63;;;19.40;99.90;;;;;;5091610;28;20560;-82
2021/09/08 01:59:17;;;;;;;13.20;10.53;;;19.40;99.90;;;;;;5092101;28;20469;-82
2021/09/08 02:01:45;;;;;;;13.30;10.30;;;19.50;99.90;;;;;;5089631;28;20540;-82
2021/09/08 02:04:12;;;;;;;17.80;10.03;;;19.40;99.90;;;;;;5091280;28;21078;-84
2021/09/08 02:06:49;;;;;;;14.33;8.50;;;19.40;99.90;;;;;;5096686;28;20504;-82
2021/09/08 02:09:17;;;;;;;13.23;10.70;;;19.40;99.90;;;;;;5093634;28;21042;-82
2021/09/08 02:11:44;;;;;;;16.67;10.50;;;19.40;99.90;;;;;;5091683;28;20962;-81
2021/09/08 02:14:12;;;;;;;18.73;11.90;;;19.40;99.90;;;;;;5095692;28;21092;-82
2021/09/08 02:16:40;;;;;;;16.27;10.03;;;19.40;99.90;;;;;;5089953;28;20538;-84
2021/09/08 02:19:07;;;;;;;24.53;10.13;;;19.40;99.90;;;;;;5091162;28;20463;-81
2021/09/08 02:21:35;;;;;;;13.37;10.27;;;19.40;99.90;;;;;;5089284;28;21182;-84
2021/09/08 02:24:02;;;;;;;13.90;9.57;;;19.40;99.90;;;;;;5085102;28;20589;-81
2021/09/08 02:26:28;;;;;;;13.60;10.23;;;19.40;99.90;;;;;;5092488;28;20473;-83
2021/09/08 02:28:55;;;;;;;13.70;9.90;;;19.40;99.90;;;;;;5090110;28;20490;-83
2021/09/08 02:31:23;;;;;;;14.23;10.10;;;19.30;99.90;;;;;;5095773;28;20466;-83
2021/09/08 02:33:53;;;;;;;13.73;9.50;;;19.30;99.90;;;;;;5088674;28;20546;-82
2021/09/08 02:36:23;;;;;;;15.03;10.10;;;19.30;99.90;;;;;;5094983;28;20468;-82
2021/09/08 02:38:50;;;;;;;18.97;10.77;;;19.30;99.90;;;;;;5083690;28;20488;-82
2021/09/08 02:41:17;;;;;;;12.10;9.60;;;19.20;99.90;;;;;;5089009;28;20458;-82
2021/09/08 02:43:44;;;;;;;13.03;10.40;;;19.20;99.90;;;;;;5087726;28;20503;-81
2021/09/08 02:46:11;;;;;;;14.87;10.97;;;19.20;99.90;;;;;;5088580;28;20547;-84
2021/09/08 02:48:38;;;;;;;16.93;9.93;;;19.10;99.90;;;;;;5089541;28;21336;-81
2021/09/08 02:51:06;;;;;;;14.50;10.70;;;19.10;99.90;;;;;;5089836;28;21047;-82
2021/09/08 02:53:34;;;;;;;13.43;10.10;;;19.10;99.90;;;;;;5091576;28;20497;-82
2021/09/08 02:56:01;;;;;;;11.97;10.30;;;19.00;99.90;;;;;;5090639;28;20457;-81
2021/09/08 02:58:28;;;;;;;15.17;11.07;;;19.00;99.90;;;;;;5097308;28;20493;-83
2021/09/08 03:00:55;;;;;;;12.97;10.33;;;19.00;99.90;;;;;;5091667;28;20625;-82
2021/09/08 03:03:22;;;;;;;12.37;9.83;;;18.90;99.90;;;;;;5092689;28;20463;-84
2021/09/08 03:05:50;;;;;;;13.10;10.27;;;18.90;99.90;;;;;;5086581;28;20472;-83
2021/09/08 03:08:20;;;;;;;12.90;10.50;;;18.80;99.90;;;;;;5089109;28;21078;-82
2021/09/08 03:10:47;;;;;;;14.13;10.50;;;18.80;99.90;;;;;;5092811;28;20462;-81
2021/09/08 03:13:16;;;;;;;16.47;10.33;;;18.70;99.90;;;;;;5099514;28;20461;-82
2021/09/08 03:15:43;;;;;;;12.77;9.97;;;18.70;99.90;;;;;;5089630;28;20472;-82
2021/09/08 03:18:10;;;;;;;11.90;9.90;;;18.70;99.90;;;;;;5092122;28;20457;-84
2021/09/08 03:20:37;;;;;;;11.53;9.90;;;18.70;99.90;;;;;;5090290;28;20857;-81
2021/09/08 03:23:04;;;;;;;14.80;10.10;;;18.60;99.90;;;;;;5094201;28;20489;-81
2021/09/08 03:25:33;;;;;;;19.87;10.77;;;18.60;99.90;;;;;;5093464;28;20499;-82
2021/09/08 03:28:00;;;;;;;13.30;10.20;;;18.60;99.90;;;;;;5090637;28;21227;-82
2021/09/08 03:30:27;;;;;;;16.83;10.83;;;18.60;99.90;;;;;;5088172;28;20463;-82
2021/09/08 03:32:54;;;;;;;16.27;11.27;;;18.60;99.90;;;;;;5089955;28;20546;-82
2021/09/08 03:35:21;;;;;;;19.90;13.77;;;18.60;99.90;;;;;;5088431;28;20468;-81
2021/09/08 03:37:49;;;;;;;14.70;10.83;;;18.60;99.90;;;;;;5091677;28;20461;-84
2021/09/08 03:40:16;;;;;;;15.03;10.43;;;18.60;99.90;;;;;;5083586;28;20458;-81
2021/09/08 03:42:45;;;;;;;17.60;11.10;;;18.60;99.90;;;;;;5091752;28;20464;-83
2021/09/08 03:45:15;;;;;;;12.40;10.00;;;18.60;99.90;;;;;;5089002;28;20494;-82
2021/09/08 03:47:42;;;;;;;13.83;9.47;;;18.60;99.90;;;;;;5087579;28;20479;-84
2021/09/08 03:50:10;;;;;;;17.17;10.60;;;18.70;99.90;;;;;;5098810;28;20511;-81
2021/09/08 03:52:38;;;;;;;15.27;10.60;;;18.60;99.90;;;;;;5083794;28;21033;-82
2021/09/08 03:55:06;;;;;;;15.73;11.20;;;18.70;99.90;;;;;;5091114;28;21172;-81
2021/09/08 03:57:32;;;;;;;13.27;10.23;;;18.60;99.90;;;;;;5091736;28;20471;-81
2021/09/08 04:00:01;;;;;;;15.10;10.50;;;18.60;99.90;;;;;;5089414;28;20468;-82
2021/09/08 04:02:28;;;;;;;15.20;11.07;;;18.60;99.90;;;;;;5086732;28;20463;-83
2021/09/08 04:04:55;;;;;;;19.03;10.60;;;18.60;99.90;;;;;;5087698;28;20507;-82
2021/09/08 04:07:21;;;;;;;21.30;11.27;;;18.60;99.90;;;;;;5092368;28;20478;-83
2021/09/08 04:09:48;;;;;;;19.87;11.73;;;18.60;99.90;;;;;;5093425;28;20470;-82
2021/09/08 04:12:15;;;;;;;21.33;11.57;;;18.60;99.90;;;;;;5092399;28;20952;-83
2021/09/08 04:14:42;;;;;;;16.10;10.87;;;18.60;99.90;;;;;;5094332;28;20468;-81
2021/09/08 04:17:10;;;;;;;14.93;10.43;;;18.60;99.90;;;;;;5094366;28;20587;-83
2021/09/08 04:19:37;;;;;;;21.20;10.40;;;18.60;99.90;;;;;;5092891;28;20489;-83
2021/09/08 04:22:04;;;;;;;18.00;11.37;;;18.50;99.90;;;;;;5093830;28;20478;-83
2021/09/08 04:24:31;;;;;;;16.80;10.53;;;18.60;99.90;;;;;;5096104;28;20833;-85
2021/09/08 04:26:58;;;;;;;16.70;11.50;;;18.60;99.90;;;;;;5090421;28;20570;-84
2021/09/08 04:29:25;;;;;;;18.10;10.77;;;18.50;99.90;;;;;;5091974;28;20477;-83
2021/09/08 04:31:52;;;;;;;19.77;10.70;;;18.60;99.90;;;;;;5093563;28;20474;-84
2021/09/08 04:34:21;;;;;;;12.37;10.47;;;18.60;99.90;;;;;;5085935;28;20473;-84
2021/09/08 04:36:48;;;;;;;18.83;10.90;;;18.60;99.90;;;;;;5094305;28;20487;-85
2021/09/08 04:39:15;;;;;;;19.03;11.40;;;18.60;99.90;;;;;;5090337;28;20457;-83
2021/09/08 04:41:42;;;;;;;22.80;10.13;;;18.60;99.90;;;;;;5097350;28;20469;-83
2021/09/08 04:44:08;;;;;;;18.23;11.87;;;18.50;99.90;;;;;;5090146;28;20502;-84
2021/09/08 04:46:35;;;;;;;21.10;10.20;;;18.50;99.90;;;;;;5096414;28;20468;-86
2021/09/08 04:49:02;;;;;;;20.17;11.23;;;18.50;99.90;;;;;;5094843;28;20450;-85
2021/09/08 04:51:30;;;;;;;15.13;10.80;;;18.40;99.90;;;;;;5094147;28;20527;-85
2021/09/08 04:53:57;;;;;;;14.03;9.93;;;18.40;99.90;;;;;;5094163;28;20469;-84
2021/09/08 04:56:24;;;;;;;16.60;11.07;;;18.40;99.90;;;;;;5095398;28;20465;-85
2021/09/08 04:58:52;;;;;;;15.77;11.70;;;18.40;99.90;;;;;;5098773;28;20498;-85
2021/09/08 05:01:18;;;;;;;19.77;10.90;;;18.40;99.90;;;;;;5097529;28;20522;-84
2021/09/08 05:03:46;;;;;;;26.57;11.20;;;18.40;99.90;;;;;;5096123;28;20949;-83
2021/09/08 05:06:12;;;;;;;19.20;11.70;;;18.40;99.90;;;;;;5088217;28;21062;-84
2021/09/08 05:08:41;;;;;;;21.93;11.20;;;18.40;99.90;;;;;;5093083;28;20464;-84
2021/09/08 05:11:08;;;;;;;26.93;12.70;;;18.40;99.90;;;;;;5089704;28;20467;-85
2021/09/08 05:13:36;;;;;;;14.90;11.07;;;18.40;99.90;;;;;;5096479;28;20472;-84
2021/09/08 05:16:04;;;;;;;19.93;11.63;;;18.30;99.90;;;;;;5096598;28;20560;-84
2021/09/08 05:18:30;;;;;;;18.90;11.23;;;18.30;99.90;;;;;;5092476;28;20467;-84
2021/09/08 05:20:58;;;;;;;17.53;10.77;;;18.30;99.90;;;;;;5089940;28;20484;-83
2021/09/08 05:23:25;;;;;;;17.20;11.37;;;18.30;99.90;;;;;;5090574;28;21191;-83
2021/09/08 05:25:53;;;;;;;16.90;10.30;;;18.30;99.90;;;;;;5090384;28;20499;-83
2021/09/08 05:28:20;;;;;;;14.67;10.37;;;18.30;99.90;;;;;;5095019;28;20529;-85
2021/09/08 05:30:47;;;;;;;14.10;10.10;;;18.30;99.90;;;;;;5088220;28;20791;-83
2021/09/08 05:33:14;;;;;;;17.10;10.53;;;18.30;99.90;;;;;;5095804;28;20813;-85
2021/09/08 05:35:41;;;;;;;28.67;10.97;;;18.30;99.90;;;;;;5088274;28;20468;-85
2021/09/08 05:38:08;;;;;;;13.50;10.80;;;18.30;99.90;;;;;;5094832;28;20476;-85
2021/09/08 05:40:36;;;;;;;21.20;11.30;;;18.30;99.90;;;;;;5096689;28;20470;-84
2021/09/08 05:43:04;;;;;;;28.90;10.93;;;18.20;99.90;;;;;;5091170;28;20548;-85
2021/09/08 05:45:31;;;;;;;23.67;11.60;;;18.20;99.90;;;;;;5091108;28;20501;-84
2021/09/08 05:47:58;;;;;;;14.30;10.53;;;18.20;99.90;;;;;;5087007;28;20465;-85
2021/09/08 05:50:25;;;;;;;17.23;9.47;;;18.20;99.90;;;;;;5093522;28;20472;-84
2021/09/08 05:52:52;;;;;;;15.00;10.37;;;18.20;99.90;;;;;;5097811;28;20464;-85
2021/09/08 05:55:19;;;;;;;19.73;12.23;;;18.20;99.90;;;;;;5092023;28;20512;-84
2021/09/08 05:57:46;;;;;;;15.10;10.60;;;18.20;99.90;;;;;;5091988;28;20476;-84
2021/09/08 06:00:15;;;;;;;21.13;11.03;;;18.20;99.90;;;;;;5096223;28;20467;-85
2021/09/08 06:02:42;;;;;;;18.83;11.27;;;18.20;99.90;;;;;;5091800;27;20472;-84
2021/09/08 06:05:10;;;;;;;15.17;11.13;;;18.20;99.90;;;;;;5091383;28;21013;-85
2021/09/08 06:07:37;;;;;;;13.10;10.60;;;18.20;99.90;;;;;;5090818;28;20474;-83
2021/09/08 06:10:04;;;;;;;14.57;11.17;;;18.20;99.90;;;;;;5088822;28;20560;-83
2021/09/08 06:12:31;;;;;;;15.23;11.30;;;18.20;99.90;;;;;;5086341;28;20551;-85
2021/09/08 06:14:58;;;;;;;15.77;12.20;;;18.20;99.90;;;;;;5094966;28;20520;-85
2021/09/08 06:17:26;;;;;;;15.40;10.30;;;18.20;99.90;;;;;;5095757;28;20552;-83
2021/09/08 06:19:54;;;;;;;17.90;11.97;;;18.30;99.90;;;;;;5091494;28;20489;-83
2021/09/08 06:22:21;;;;;;;15.00;11.37;;;18.30;99.90;;;;;;5089798;28;21172;-83
2021/09/08 06:24:47;;;;;;;19.33;10.50;;;18.30;99.90;;;;;;5091991;28;20595;-83
2021/09/08 06:27:14;;;;;;;17.60;11.80;;;18.40;99.90;;;;;;5091393;28;21040;-83
2021/09/08 06:29:41;;;;;;;21.37;10.73;;;18.40;99.90;;;;;;5087556;28;20454;-83
2021/09/08 06:32:08;;;;;;;29.50;11.03;;;18.50;99.90;;;;;;5088520;28;20574;-83
2021/09/08 06:34:36;;;;;;;12.90;10.00;;;18.50;99.90;;;;;;5092167;28;20547;-84
2021/09/08 06:37:04;;;;;;;14.87;10.70;;;18.60;99.90;;;;;;5086989;28;20492;-84
2021/09/08 06:39:31;;;;;;;19.07;11.50;;;18.60;99.90;;;;;;5087852;28;20518;-84
2021/09/08 06:41:58;;;;;;;21.93;10.57;;;18.70;99.90;;;;;;5087810;28;20576;-83
2021/09/08 06:44:25;;;;;;;18.97;12.10;;;18.70;99.90;;;;;;5094190;28;20552;-83
2021/09/08 06:46:53;;;;;;;18.47;11.33;;;18.70;99.90;;;;;;5081466;28;20537;-83
2021/09/08 06:49:20;;;;;;;16.10;11.60;;;18.80;99.90;;;;;;5085410;28;20822;-83
2021/09/08 06:51:49;;;;;;;21.50;11.13;;;18.90;99.90;;;;;;5089758;28;20570;-85
2021/09/08 06:54:17;;;;;;;20.90;10.30;;;18.90;99.90;;;;;;5090556;28;20467;-83
2021/09/08 06:56:44;;;;;;;22.07;12.53;;;19.00;99.90;;;;;;5091443;28;21170;-84
2021/09/08 06:59:11;;;;;;;17.00;10.50;;;19.00;99.90;;;;;;5087304;28;20468;-84
2021/09/08 07:01:38;;;;;;;19.57;11.07;;;19.00;99.90;;;;;;5090943;27;20459;-84
2021/09/08 07:04:05;;;;;;;24.90;11.07;;;19.10;99.90;;;;;;5088681;28;20464;-84
2021/09/08 07:06:32;;;;;;;20.13;10.70;;;19.20;99.90;;;;;;5090713;28;20484;-83
2021/09/08 07:09:00;;;;;;;17.23;10.97;;;19.20;99.90;;;;;;5089454;28;20470;-84
2021/09/08 07:11:27;;;;;;;17.40;11.30;;;19.20;99.90;;;;;;5086860;28;20475;-83
2021/09/08 07:13:54;;;;;;;17.30;10.20;;;19.30;99.90;;;;;;5090273;28;20485;-84
2021/09/08 07:16:21;;;;;;;27.90;10.17;;;19.40;99.90;;;;;;5095777;28;20457;-84
2021/09/08 07:18:48;;;;;;;20.97;11.20;;;19.40;99.90;;;;;;5090792;28;20458;-84
2021/09/08 07:21:15;;;;;;;23.40;11.23;;;19.50;99.90;;;;;;5087882;28;20484;-85
2021/09/08 07:23:42;;;;;;;15.80;10.53;;;19.50;99.90;;;;;;5088181;28;20458;-85
2021/09/08 07:26:11;;;;;;;21.57;10.20;;;19.60;99.90;;;;;;5093023;28;20503;-83
2021/09/08 07:28:38;;;;;;;25.00;9.90;;;19.70;99.90;;;;;;5086068;28;20485;-85
2021/09/08 07:31:05;;;;;;;28.23;11.57;;;19.70;99.90;;;;;;5089339;28;20489;-83
2021/09/08 07:33:32;;;;;;;23.40;10.60;;;19.80;99.90;;;;;;5090144;28;20462;-86
2021/09/08 07:35:59;;;;;;;25.43;11.33;;;19.80;99.90;;;;;;5091268;28;20456;-85
2021/09/08 07:38:27;;;;;;;19.43;10.17;;;19.90;99.90;;;;;;5087174;28;20467;-84
2021/09/08 07:40:55;;;;;;;23.63;10.53;;;19.90;99.90;;;;;;5095512;28;20464;-86
2021/09/08 07:43:23;;;;;;;26.70;11.23;;;19.90;99.90;;;;;;5091579;28;20985;-85
2021/09/08 07:45:50;;;;;;;21.50;10.47;;;20.00;99.90;;;;;;5089252;28;20872;-83
2021/09/08 07:48:19;;;;;;;16.53;10.23;;;20.10;99.90;;;;;;5096518;28;20896;-84
2021/09/08 07:50:46;;;;;;;27.33;11.90;;;20.10;99.90;;;;;;5097536;28;21055;-84
2021/09/08 07:53:13;;;;;;;19.73;10.67;;;20.10;99.90;;;;;;5099754;28;20499;-85
2021/09/08 07:55:41;;;;;;;15.73;10.53;;;20.20;99.90;;;;;;5091358;28;20480;-89
2021/09/08 07:58:08;;;;;;;18.33;10.80;;;20.20;99.90;;;;;;5091280;28;20458;-84
2021/09/08 08:00:36;;;;;;;20.17;11.33;;;20.20;99.90;;;;;;5094648;28;20939;-86
2021/09/08 08:03:04;;;;;;;20.13;11.37;;;20.30;99.90;;;;;;5091015;28;20544;-83
2021/09/08 08:05:32;;;;;;;21.67;10.63;;;20.40;99.90;;;;;;5092141;28;20652;-83
2021/09/08 08:08:01;;;;;;;15.00;10.50;;;20.40;99.90;;;;;;5096294;28;20476;-84
2021/09/08 08:10:29;;;;;;;22.53;10.40;;;20.50;99.90;;;;;;5093781;28;21011;-83
2021/09/08 08:12:57;;;;;;;16.87;11.40;;;20.50;99.90;;;;;;5091432;28;21247;-84
2021/09/08 08:15:24;;;;;;;16.37;10.80;;;20.50;99.90;;;;;;5093290;28;20464;-83
2021/09/08 08:17:53;;;;;;;16.80;11.17;;;20.60;99.90;;;;;;5095699;28;20515;-86
2021/09/08 08:20:21;;;;;;;22.40;11.90;;;20.60;99.90;;;;;;5095473;28;20481;-83
2021/09/08 08:22:48;;;;;;;18.93;11.47;;;20.70;99.90;;;;;;5095117;28;20577;-83
2021/09/08 08:25:17;;;;;;;17.00;11.40;;;20.70;99.90;;;;;;5086786;28;20481;-84
2021/09/08 08:27:45;;;;;;;20.87;11.80;;;20.70;99.90;;;;;;5094412;28;20826;-83
2021/09/08 08:30:14;;;;;;;15.43;11.07;;;20.80;99.90;;;;;;5092570;27;20497;-84
2021/09/08 08:32:42;;;;;;;17.10;11.50;;;20.80;99.90;;;;;;5091640;28;20608;-84
2021/09/08 08:35:11;;;;;;;17.43;11.30;;;20.90;99.90;;;;;;5091562;28;20469;-84
2021/09/08 08:37:39;;;;;;;13.40;10.73;;;20.90;99.90;;;;;;5097136;28;20541;-84
2021/09/08 08:40:08;;;;;;;13.40;11.00;;;21.00;99.90;;;;;;5089678;28;20615;-84
2021/09/08 08:42:35;;;;;;;18.73;11.67;;;21.00;99.90;;;;;;5086704;28;20992;-83
2021/09/08 08:45:03;;;;;;;11.80;9.70;;;21.10;99.90;;;;;;5098019;28;21059;-84
2021/09/08 08:47:31;;;;;;;18.33;11.53;;;21.10;99.90;;;;;;5092917;28;20457;-84
2021/09/08 08:50:00;;;;;;;13.63;11.07;;;21.20;99.90;;;;;;5097369;28;20475;-83
2021/09/08 08:52:29;;;;;;;13.43;10.03;;;21.20;99.90;;;;;;5087939;28;20469;-82
2021/09/08 08:54:57;;;;;;;13.30;10.23;;;21.30;99.90;;;;;;5093581;28;20663;-82
2021/09/08 08:57:28;;;;;;;17.43;10.40;;;;;;;;;;5093577;28;20552;-83
2021/09/08 08:59:55;;;;;;;14.83;10.73;;;21.40;99.90;;;;;;5091798;28;20458;-85
2021/09/08 09:02:24;;;;;;;13.33;9.50;;;21.50;99.90;;;;;;5094873;28;20570;-85
2021/09/08 09:04:53;;;;;;;13.93;9.93;;;21.50;99.90;;;;;;5094597;28;20483;-83
2021/09/08 09:07:24;;;;;;;20.03;11.10;;;21.60;99.90;;;;;;5100848;28;20496;-85
2021/09/08 09:09:55;;;;;;;14.87;10.37;;;21.70;99.90;;;;;;5095060;28;20552;-85
2021/09/08 09:12:26;;;;;;;16.00;10.50;;;21.80;99.90;;;;;;5098335;28;20518;-84
2021/09/08 09:14:58;;;;;;;18.00;11.03;;;21.80;99.90;;;;;;5096813;28;20568;-85
2021/09/08 09:17:29;;;;;;;14.63;10.83;;;21.90;99.90;;;;;;5096401;28;20463;-83
2021/09/08 09:19:57;;;;;;;20.57;10.67;;;22.00;99.90;;;;;;5086426;28;20835;-83
2021/09/08 09:22:34;;;;;;;15.93;11.13;;;22.10;99.90;;;;;;5087115;28;21247;-86
2021/09/08 09:25:03;;;;;;;16.00;11.50;;;22.10;99.90;;;;;;5092566;28;21003;-83
2021/09/08 09:27:35;;;;;;;13.60;9.80;;;22.20;99.90;;;;;;5094918;28;20488;-83
2021/09/08 09:30:10;;;;;;;14.70;10.60;;;22.30;99.90;;;;;;5096725;28;20457;-83
2021/09/08 09:32:39;;;;;;;14.57;9.73;;;22.40;99.90;;;;;;5091373;28;20464;-84
2021/09/08 09:35:07;;;;;;;17.23;11.10;;;22.40;99.90;;;;;;5094446;28;20464;-83
2021/09/08 09:37:35;;;;;;;15.20;10.20;;;22.50;99.90;;;;;;5093042;28;21330;-83
2021/09/08 09:40:05;;;;;;;18.60;11.80;;;22.50;99.90;;;;;;5090227;28;20458;-88
2021/09/08 09:42:33;;;;;;;13.80;10.63;;;22.60;99.90;;;;;;5091128;28;20558;-85
2021/09/08 09:45:01;;;;;;;18.00;12.13;;;22.70;99.90;;;;;;5096474;28;20462;-85
2021/09/08 09:47:28;;;;;;;19.00;11.33;;;22.70;99.90;;;;;;5093028;28;20497;-85
2021/09/08 09:49:56;;;;;;;14.20;10.37;;;22.80;99.90;;;;;;5095972;28;20477;-83
2021/09/08 09:52:25;;;;;;;14.90;10.57;;;22.80;99.90;;;;;;5091219;28;20461;-84
2021/09/08 09:54:53;;;;;;;21.53;10.57;;;22.80;99.90;;;;;;5094946;28;20538;-83
2021/09/08 09:57:24;;;;;;;15.57;11.10;;;22.90;99.90;;;;;;5093287;28;20472;-84
2021/09/08 09:59:51;;;;;;;17.67;11.20;;;23.00;99.90;;;;;;5091802;28;20872;-85
2021/09/08 10:02:19;;;;;;;13.00;10.13;;;23.00;99.90;;;;;;5094789;28;20466;-83
2021/09/08 10:04:48;;;;;;;15.10;11.23;;;23.10;99.90;;;;;;5097587;28;20453;-83
2021/09/08 10:07:19;;;;;;;15.17;11.30;;;23.10;99.90;;;;;;5097155;28;20517;-85
2021/09/08 10:09:51;;;;;;;13.40;9.20;;;23.10;99.90;;;;;;5085471;28;20462;-84
2021/09/08 10:12:24;;;;;;;15.40;9.90;;;23.20;99.90;;;;;;5089977;28;20480;-84
2021/09/08 10:14:52;;;;;;;15.87;9.67;;;23.20;99.90;;;;;;5096399;28;20452;-84
2021/09/08 10:17:20;;;;;;;13.33;10.60;;;23.30;99.90;;;;;;5090021;28;20466;-83
2021/09/08 10:19:49;;;;;;;14.23;10.50;;;23.30;99.90;;;;;;5091647;28;20840;-86
2021/09/08 10:22:17;;;;;;;13.80;11.67;;;23.40;99.90;;;;;;5088534;28;20588;-86
2021/09/08 10:24:47;;;;;;;17.43;10.97;;;23.40;99.90;;;;;;5093959;28;20924;-86
2021/09/08 10:27:24;;;;;;;11.80;10.40;;;23.50;99.90;;;;;;5091791;27;21132;-85
2021/09/08 10:29:53;;;;;;;19.00;10.70;;;23.50;99.90;;;;;;5091550;28;20462;-77
2021/09/08 10:32:21;;;;;;;13.93;10.10;;;23.50;99.90;;;;;;5091086;28;20468;-84
2021/09/08 10:34:49;;;;;;;15.30;11.33;;;23.60;99.90;;;;;;5089787;28;20467;-83
2021/09/08 10:37:17;;;;;;;11.97;9.37;;;23.60;99.90;;;;;;5088854;28;20469;-82
2021/09/08 10:39:45;;;;;;;13.57;9.97;;;23.60;99.90;;;;;;5087627;28;20460;-84
2021/09/08 10:42:14;;;;;;;11.33;9.80;;;23.70;99.90;;;;;;5092346;28;21334;-86
2021/09/08 10:44:44;;;;;;;13.83;9.53;;;23.70;99.90;;;;;;5094020;28;20556;-81
2021/09/08 10:47:12;;;;;;;12.63;9.63;;;23.70;99.90;;;;;;5095730;28;20496;-75
2021/09/08 10:49:57;;;;;;;12.50;10.20;;;23.80;99.90;;;;;;5088895;28;20488;-73
2021/09/08 10:52:46;;;;;;;13.67;9.50;;;23.80;99.90;;;;;;5094287;28;20453;-73
2021/09/08 10:55:23;;;;;;;15.70;10.37;;;23.90;99.90;;;;;;5090676;28;20461;-74
2021/09/08 10:58:00;;;;;;;16.07;10.00;;;23.90;99.90;;;;;;5089015;28;20495;-75
2021/09/08 11:00:37;;;;;;;12.20;9.50;;;23.90;99.90;;;;;;5090792;28;20550;-74
2021/09/08 11:03:07;;;;;;;10.47;9.43;;;24.00;99.90;;;;;;5087499;28;20890;-75
2021/09/08 11:05:48;;;;;;;10.90;9.80;;;24.00;99.90;;;;;;5091942;28;20461;-79
2021/09/08 11:08:23;;;;;;;13.57;9.80;;;24.10;99.90;;;;;;5088682;28;20841;-74
2021/09/08 11:10:51;;;;;;;15.83;8.93;;;24.10;99.90;;;;;;5087541;28;20864;-75
2021/09/08 11:13:27;;;;;;;12.90;9.87;;;24.20;99.90;;;;;;5088639;28;20456;-74
2021/09/08 11:15:56;;;;;;;13.00;9.10;;;24.20;99.90;;;;;;5090767;28;20457;-74
2021/09/08 11:18:34;;;;;;;12.00;10.17;;;24.20;99.90;;;;;;5087994;28;20463;-74
2021/09/08 11:21:03;;;;;;;11.77;9.30;;;24.30;99.90;;;;;;5087299;28;20481;-74
2021/09/08 11:23:30;;;;;;;12.10;9.10;;;24.30;99.90;;;;;;5094261;28;20937;-73
2021/09/08 11:26:05;;;;;;;19.60;10.17;;;24.40;99.90;;;;;;5091186;28;20456;-77
2021/09/08 11:28:33;;;;;;;17.57;9.50;;;24.40;99.90;;;;;;5095173;28;20487;-73
2021/09/08 11:31:10;;;;;;;18.40;9.43;;;24.40;99.90;;;;;;5093824;28;20494;-73
2021/09/08 11:33:37;;;;;;;13.83;9.80;;;24.50;99.90;;;;;;5092807;28;20986;-74
2021/09/08 11:36:17;;;;;;;13.27;9.50;;;24.50;99.90;;;;;;5087134;28;20461;-73
2021/09/08 11:38:46;;;;;;;12.63;8.90;;;24.50;99.90;;;;;;5087826;28;20460;-73
2021/09/08 11:41:15;;;;;;;11.33;9.23;;;24.60;99.90;;;;;;5086971;28;20511;-73
2021/09/08 11:43:46;;;;;;;11.90;9.53;;;24.60;99.90;;;;;;5089225;28;20465;-73
2021/09/08 11:46:17;;;;;;;15.97;8.97;;;24.70;99.90;;;;;;5096368;28;20454;-73
2021/09/08 11:48:45;;;;;;;16.70;9.60;;;24.70;99.90;;;;;;5093390;28;20457;-74
2021/09/08 11:51:14;;;;;;;14.80;9.93;;;24.70;99.90;;;;;;5089813;28;20467;-83
2021/09/08 11:53:41;;;;;;;15.50;8.90;;;24.80;99.90;;;;;;5088505;28;20457;-81
2021/09/08 11:56:11;;;;;;;13.00;9.63;;;24.80;99.90;;;;;;5095168;28;20461;-83
2021/09/08 11:58:38;;;;;;;17.43;9.77;;;24.80;99.90;;;;;;5089780;28;20551;-81
2021/09/08 12:01:08;;;;;;;10.43;8.37;;;24.80;99.90;;;;;;5094445;28;20462;-80
2021/09/08 12:03:40;;;;;;;15.33;10.13;;;24.90;99.90;;;;;;5094874;28;20460;-83
2021/09/08 12:06:12;;;;;;;18.30;9.83;;;24.90;99.90;;;;;;5090603;28;20470;-83
2021/09/08 12:08:54;;;;;;;19.50;10.00;;;24.90;99.90;;;;;;5092295;28;20462;-82
2021/09/08 12:11:38;;;;;;;14.03;9.20;;;24.90;99.90;;;;;;5091603;28;20489;-82
2021/09/08 12:14:24;;;;;;;16.43;9.03;;;25.00;99.90;;;;;;5084442;28;20492;-82
2021/09/08 12:16:53;;;;;;;12.20;9.40;;;25.00;99.90;;;;;;5089781;28;20503;-84
2021/09/08 12:19:28;;;;;;;11.17;8.57;;;25.00;99.90;;;;;;5090616;28;20964;-81
2021/09/08 12:22:07;;;;;;;11.03;9.30;;;25.00;99.90;;;;;;5089401;28;20468;-82
2021/09/08 12:24:38;;;;;;;13.50;9.30;;;25.10;99.90;;;;;;5090091;28;20487;-81
2021/09/08 12:27:23;;;;;;;13.37;8.60;;;25.00;99.90;;;;;;5089247;28;20524;-83
2021/09/08 12:29:51;;;;;;;19.73;10.07;;;25.10;99.90;;;;;;5090936;28;20469;-83
2021/09/08 12:32:18;;;;;;;17.47;10.40;;;25.10;99.90;;;;;;5094336;28;20473;-83
2021/09/08 12:34:47;;;;;;;10.97;8.17;;;25.20;99.90;;;;;;5096036;28;20457;-82
2021/09/08 12:37:15;;;;;;;11.70;8.33;;;25.20;99.90;;;;;;5095032;28;20469;-82